sensor_id;sensor_type;location;lat;lon;timestamp;P1;durP1;ratioP1;P2;durP2;ratioP2
49784;SDS011;35679;38.732;-121.358;2022-09-09T00:03:05;3.65;;;3.35;;
49784;SDS011;35679;38.732;-121.358;2022-09-09T00:09:21;3.28;;;3.00;;
49784;SDS011;35679;38.732;-121.358;2022-09-09T00:12:17;3.47;;;3.17;;
49784;SDS011;35679;38.732;-121.358;2022-09-09T00:15:14;3.15;;;2.95;;
49784;SDS011;35679;38.732;-121.358;2022-09-09T00:21:17;3.20;;;3.00;;
49784;SDS011;35679;38.732;-121.358;2022-09-09T00:24:19;3.08;;;2.75;;
49784;SDS011;35679;38.732;-121.358;2022-09-09T00:30:34;3.10;;;2.80;;
49784;SDS011;35679;38.732;-121.358;2022-09-09T00:33:26;3.30;;;3.10;;
49784;SDS011;35679;38.732;-121.358;2022-09-09T00:36:18;3.40;;;3.10;;
49784;SDS011;35679;38.732;-121.358;2022-09-09T00:55:20;3.45;;;3.15;;
49784;SDS011;35679;38.732;-121.358;2022-09-09T00:58:11;3.53;;;3.22;;
49784;SDS011;35679;38.732;-121.358;2022-09-09T01:01:06;3.03;;;2.72;;
49784;SDS011;35679;38.732;-121.358;2022-09-09T01:04:00;3.85;;;3.10;;
49784;SDS011;35679;38.732;-121.358;2022-09-09T01:06:54;3.10;;;2.80;;
49784;SDS011;35679;38.732;-121.358;2022-09-09T01:12:47;3.10;;;2.90;;
49784;SDS011;35679;38.732;-121.358;2022-09-09T01:15:39;3.20;;;2.72;;
49784;SDS011;35679;38.732;-121.358;2022-09-09T01:18:32;3.25;;;3.05;;
49784;SDS011;35679;38.732;-121.358;2022-09-09T01:28:12;2.90;;;2.63;;
49784;SDS011;35679;38.732;-121.358;2022-09-09T01:31:32;3.30;;;2.88;;
49784;SDS011;35679;38.732;-121.358;2022-09-09T01:34:27;3.28;;;2.97;;
49784;SDS011;35679;38.732;-121.358;2022-09-09T01:37:20;4.38;;;2.67;;
49784;SDS011;35679;38.732;-121.358;2022-09-09T01:40:09;3.40;;;3.10;;
49784;SDS011;35679;38.732;-121.358;2022-09-09T01:42:59;3.25;;;2.92;;
49784;SDS011;35679;38.732;-121.358;2022-09-09T01:45:51;3.17;;;2.90;;
49784;SDS011;35679;38.732;-121.358;2022-09-09T01:48:43;3.45;;;2.80;;
49784;SDS011;35679;38.732;-121.358;2022-09-09T01:51:35;3.35;;;3.05;;
49784;SDS011;35679;38.732;-121.358;2022-09-09T01:54:31;3.15;;;2.88;;
49784;SDS011;35679;38.732;-121.358;2022-09-09T01:57:29;2.90;;;2.70;;
49784;SDS011;35679;38.732;-121.358;2022-09-09T02:00:19;3.47;;;3.00;;
49784;SDS011;35679;38.732;-121.358;2022-09-09T02:03:25;3.00;;;2.80;;
49784;SDS011;35679;38.732;-121.358;2022-09-09T02:09:26;3.22;;;3.03;;
49784;SDS011;35679;38.732;-121.358;2022-09-09T02:12:18;3.00;;;2.80;;
49784;SDS011;35679;38.732;-121.358;2022-09-09T02:15:17;2.88;;;2.67;;
49784;SDS011;35679;38.732;-121.358;2022-09-09T02:21:45;2.90;;;2.70;;
49784;SDS011;35679;38.732;-121.358;2022-09-09T02:24:37;3.35;;;3.05;;
49784;SDS011;35679;38.732;-121.358;2022-09-09T02:27:43;3.13;;;2.92;;
49784;SDS011;35679;38.732;-121.358;2022-09-09T02:30:34;2.90;;;2.70;;
49784;SDS011;35679;38.732;-121.358;2022-09-09T02:33:27;3.40;;;3.10;;
49784;SDS011;35679;38.732;-121.358;2022-09-09T02:36:24;3.08;;;2.88;;
49784;SDS011;35679;38.732;-121.358;2022-09-09T02:39:18;6.28;;;2.90;;
49784;SDS011;35679;38.732;-121.358;2022-09-09T02:42:10;3.20;;;2.90;;
49784;SDS011;35679;38.732;-121.358;2022-09-09T02:44:59;3.20;;;2.90;;
49784;SDS011;35679;38.732;-121.358;2022-09-09T02:47:58;3.67;;;2.88;;
49784;SDS011;35679;38.732;-121.358;2022-09-09T02:51:12;4.32;;;2.90;;
49784;SDS011;35679;38.732;-121.358;2022-09-09T02:54:20;2.83;;;2.63;;
49784;SDS011;35679;38.732;-121.358;2022-09-09T02:57:26;3.10;;;2.80;;
49784;SDS011;35679;38.732;-121.358;2022-09-09T03:00:22;2.80;;;2.60;;
49784;SDS011;35679;38.732;-121.358;2022-09-09T03:03:19;2.88;;;2.67;;
49784;SDS011;35679;38.732;-121.358;2022-09-09T03:06:11;3.87;;;2.53;;
49784;SDS011;35679;38.732;-121.358;2022-09-09T03:09:03;2.97;;;2.78;;
49784;SDS011;35679;38.732;-121.358;2022-09-09T03:11:53;2.90;;;2.70;;
49784;SDS011;35679;38.732;-121.358;2022-09-09T03:14:45;3.65;;;2.60;;
49784;SDS011;35679;38.732;-121.358;2022-09-09T03:17:35;2.70;;;2.50;;
49784;SDS011;35679;38.732;-121.358;2022-09-09T03:20:26;3.45;;;2.40;;
49784;SDS011;35679;38.732;-121.358;2022-09-09T03:23:17;3.03;;;2.55;;
49784;SDS011;35679;38.732;-121.358;2022-09-09T03:26:06;3.20;;;2.90;;
49784;SDS011;35679;38.732;-121.358;2022-09-09T03:29:04;4.75;;;2.55;;
49784;SDS011;35679;38.732;-121.358;2022-09-09T03:31:56;4.28;;;2.67;;
49784;SDS011;35679;38.732;-121.358;2022-09-09T03:34:47;3.55;;;2.65;;
49784;SDS011;35679;38.732;-121.358;2022-09-09T03:37:38;3.55;;;2.80;;
49784;SDS011;35679;38.732;-121.358;2022-09-09T03:40:28;3.00;;;2.40;;
49784;SDS011;35679;38.732;-121.358;2022-09-09T03:43:19;5.70;;;2.78;;
49784;SDS011;35679;38.732;-121.358;2022-09-09T03:46:10;3.20;;;2.67;;
49784;SDS011;35679;38.732;-121.358;2022-09-09T03:49:00;2.78;;;2.58;;
49784;SDS011;35679;38.732;-121.358;2022-09-09T03:51:51;3.75;;;2.60;;
49784;SDS011;35679;38.732;-121.358;2022-09-09T03:54:41;4.35;;;2.50;;
49784;SDS011;35679;38.732;-121.358;2022-09-09T03:57:31;5.35;;;2.75;;
49784;SDS011;35679;38.732;-121.358;2022-09-09T04:00:26;2.78;;;2.58;;
49784;SDS011;35679;38.732;-121.358;2022-09-09T04:03:17;3.25;;;2.72;;
49784;SDS011;35679;38.732;-121.358;2022-09-09T04:06:13;2.85;;;2.65;;
49784;SDS011;35679;38.732;-121.358;2022-09-09T04:09:05;3.65;;;2.85;;
49784;SDS011;35679;38.732;-121.358;2022-09-09T04:11:56;2.88;;;2.55;;
49784;SDS011;35679;38.732;-121.358;2022-09-09T04:14:45;3.03;;;2.72;;
49784;SDS011;35679;38.732;-121.358;2022-09-09T04:17:35;2.95;;;2.75;;
49784;SDS011;35679;38.732;-121.358;2022-09-09T04:20:25;3.08;;;2.83;;
49784;SDS011;35679;38.732;-121.358;2022-09-09T04:23:14;3.97;;;3.03;;
49784;SDS011;35679;38.732;-121.358;2022-09-09T04:26:05;3.05;;;2.85;;
49784;SDS011;35679;38.732;-121.358;2022-09-09T04:28:55;3.53;;;2.90;;
49784;SDS011;35679;38.732;-121.358;2022-09-09T04:31:45;3.65;;;2.63;;
49784;SDS011;35679;38.732;-121.358;2022-09-09T04:34:34;3.08;;;2.72;;
49784;SDS011;35679;38.732;-121.358;2022-09-09T04:37:24;3.53;;;2.92;;
49784;SDS011;35679;38.732;-121.358;2022-09-09T04:40:14;3.17;;;2.90;;
49784;SDS011;35679;38.732;-121.358;2022-09-09T04:43:04;3.15;;;2.85;;
49784;SDS011;35679;38.732;-121.358;2022-09-09T04:45:57;4.38;;;2.95;;
49784;SDS011;35679;38.732;-121.358;2022-09-09T04:48:48;3.13;;;2.88;;
49784;SDS011;35679;38.732;-121.358;2022-09-09T04:51:38;3.22;;;2.92;;
49784;SDS011;35679;38.732;-121.358;2022-09-09T04:54:28;3.42;;;3.05;;
49784;SDS011;35679;38.732;-121.358;2022-09-09T04:57:18;3.53;;;3.00;;
49784;SDS011;35679;38.732;-121.358;2022-09-09T05:00:08;3.00;;;2.80;;
49784;SDS011;35679;38.732;-121.358;2022-09-09T05:03:02;3.42;;;3.13;;
49784;SDS011;35679;38.732;-121.358;2022-09-09T05:05:53;3.22;;;2.90;;
49784;SDS011;35679;38.732;-121.358;2022-09-09T05:08:45;3.72;;;3.38;;
49784;SDS011;35679;38.732;-121.358;2022-09-09T05:11:37;3.00;;;2.80;;
49784;SDS011;35679;38.732;-121.358;2022-09-09T05:14:47;4.35;;;2.95;;
49784;SDS011;35679;38.732;-121.358;2022-09-09T05:17:37;4.15;;;3.10;;
49784;SDS011;35679;38.732;-121.358;2022-09-09T05:20:27;4.13;;;3.15;;
49784;SDS011;35679;38.732;-121.358;2022-09-09T05:23:17;3.83;;;3.00;;
49784;SDS011;35679;38.732;-121.358;2022-09-09T05:26:08;4.93;;;3.30;;
49784;SDS011;35679;38.732;-121.358;2022-09-09T05:29:06;4.32;;;2.78;;
49784;SDS011;35679;38.732;-121.358;2022-09-09T05:31:56;3.63;;;3.33;;
49784;SDS011;35679;38.732;-121.358;2022-09-09T05:34:46;4.20;;;3.17;;
49784;SDS011;35679;38.732;-121.358;2022-09-09T05:37:36;3.45;;;3.08;;
49784;SDS011;35679;38.732;-121.358;2022-09-09T05:40:26;4.63;;;3.40;;
49784;SDS011;35679;38.732;-121.358;2022-09-09T05:43:16;5.63;;;3.20;;
49784;SDS011;35679;38.732;-121.358;2022-09-09T05:46:06;3.50;;;3.20;;
49784;SDS011;35679;38.732;-121.358;2022-09-09T05:49:01;5.03;;;3.30;;
49784;SDS011;35679;38.732;-121.358;2022-09-09T05:51:52;7.28;;;4.10;;
49784;SDS011;35679;38.732;-121.358;2022-09-09T05:54:43;4.07;;;3.70;;
49784;SDS011;35679;38.732;-121.358;2022-09-09T05:57:32;4.28;;;3.78;;
49784;SDS011;35679;38.732;-121.358;2022-09-09T06:00:22;4.43;;;3.42;;
49784;SDS011;35679;38.732;-121.358;2022-09-09T06:03:12;5.18;;;3.90;;
49784;SDS011;35679;38.732;-121.358;2022-09-09T06:06:03;5.93;;;3.80;;
49784;SDS011;35679;38.732;-121.358;2022-09-09T06:08:55;3.72;;;3.35;;
49784;SDS011;35679;38.732;-121.358;2022-09-09T06:11:51;6.35;;;3.38;;
49784;SDS011;35679;38.732;-121.358;2022-09-09T06:14:42;4.70;;;3.90;;
49784;SDS011;35679;38.732;-121.358;2022-09-09T06:17:34;6.30;;;4.10;;
49784;SDS011;35679;38.732;-121.358;2022-09-09T06:20:23;4.57;;;3.72;;
49784;SDS011;35679;38.732;-121.358;2022-09-09T06:23:13;7.72;;;4.10;;
49784;SDS011;35679;38.732;-121.358;2022-09-09T06:26:07;5.63;;;4.20;;
49784;SDS011;35679;38.732;-121.358;2022-09-09T06:29:01;5.00;;;3.65;;
49784;SDS011;35679;38.732;-121.358;2022-09-09T06:31:52;4.90;;;4.10;;
49784;SDS011;35679;38.732;-121.358;2022-09-09T06:34:43;4.55;;;3.92;;
49784;SDS011;35679;38.732;-121.358;2022-09-09T06:37:33;4.90;;;3.63;;
49784;SDS011;35679;38.732;-121.358;2022-09-09T06:40:23;4.32;;;3.92;;
49784;SDS011;35679;38.732;-121.358;2022-09-09T06:43:13;4.32;;;3.92;;
49784;SDS011;35679;38.732;-121.358;2022-09-09T06:46:12;5.05;;;4.00;;
49784;SDS011;35679;38.732;-121.358;2022-09-09T06:49:07;5.47;;;4.32;;
49784;SDS011;35679;38.732;-121.358;2022-09-09T06:51:58;5.05;;;4.15;;
49784;SDS011;35679;38.732;-121.358;2022-09-09T06:54:48;5.15;;;3.90;;
49784;SDS011;35679;38.732;-121.358;2022-09-09T06:57:38;5.93;;;4.40;;
49784;SDS011;35679;38.732;-121.358;2022-09-09T07:00:35;7.38;;;4.28;;
49784;SDS011;35679;38.732;-121.358;2022-09-09T07:03:28;5.90;;;4.28;;
49784;SDS011;35679;38.732;-121.358;2022-09-09T07:06:18;7.45;;;4.88;;
49784;SDS011;35679;38.732;-121.358;2022-09-09T07:09:12;7.40;;;4.30;;
49784;SDS011;35679;38.732;-121.358;2022-09-09T07:12:06;6.85;;;4.25;;
49784;SDS011;35679;38.732;-121.358;2022-09-09T07:14:58;5.90;;;4.13;;
49784;SDS011;35679;38.732;-121.358;2022-09-09T07:17:48;5.90;;;4.20;;
49784;SDS011;35679;38.732;-121.358;2022-09-09T07:20:38;5.78;;;4.60;;
49784;SDS011;35679;38.732;-121.358;2022-09-09T07:23:27;5.93;;;4.03;;
49784;SDS011;35679;38.732;-121.358;2022-09-09T07:26:24;4.65;;;4.18;;
49784;SDS011;35679;38.732;-121.358;2022-09-09T07:29:17;5.43;;;4.32;;
49784;SDS011;35679;38.732;-121.358;2022-09-09T07:32:09;5.40;;;4.13;;
49784;SDS011;35679;38.732;-121.358;2022-09-09T07:34:59;5.68;;;4.22;;
49784;SDS011;35679;38.732;-121.358;2022-09-09T07:37:48;5.20;;;3.92;;
49784;SDS011;35679;38.732;-121.358;2022-09-09T07:40:39;7.00;;;4.35;;
49784;SDS011;35679;38.732;-121.358;2022-09-09T07:43:29;4.22;;;3.83;;
49784;SDS011;35679;38.732;-121.358;2022-09-09T07:46:19;6.07;;;4.68;;
49784;SDS011;35679;38.732;-121.358;2022-09-09T07:49:10;5.18;;;4.60;;
49784;SDS011;35679;38.732;-121.358;2022-09-09T07:52:00;4.68;;;4.20;;
49784;SDS011;35679;38.732;-121.358;2022-09-09T07:54:50;4.80;;;4.30;;
49784;SDS011;35679;38.732;-121.358;2022-09-09T07:57:40;4.70;;;4.22;;
49784;SDS011;35679;38.732;-121.358;2022-09-09T08:00:30;5.85;;;4.50;;
49784;SDS011;35679;38.732;-121.358;2022-09-09T08:03:21;4.60;;;4.20;;
49784;SDS011;35679;38.732;-121.358;2022-09-09T08:06:12;4.85;;;4.30;;
49784;SDS011;35679;38.732;-121.358;2022-09-09T08:09:02;4.75;;;4.28;;
49784;SDS011;35679;38.732;-121.358;2022-09-09T08:11:53;4.85;;;4.10;;
49784;SDS011;35679;38.732;-121.358;2022-09-09T08:14:45;6.68;;;4.40;;
49784;SDS011;35679;38.732;-121.358;2022-09-09T08:17:35;4.63;;;4.10;;
49784;SDS011;35679;38.732;-121.358;2022-09-09T08:20:28;6.13;;;4.13;;
49784;SDS011;35679;38.732;-121.358;2022-09-09T08:23:18;4.85;;;4.35;;
49784;SDS011;35679;38.732;-121.358;2022-09-09T08:26:12;5.35;;;3.90;;
49784;SDS011;35679;38.732;-121.358;2022-09-09T08:29:06;3.97;;;3.63;;
49784;SDS011;35679;38.732;-121.358;2022-09-09T08:31:58;5.32;;;4.03;;
49784;SDS011;35679;38.732;-121.358;2022-09-09T08:34:49;4.90;;;4.20;;
49784;SDS011;35679;38.732;-121.358;2022-09-09T08:37:43;4.70;;;4.20;;
49784;SDS011;35679;38.732;-121.358;2022-09-09T08:40:32;6.03;;;4.47;;
49784;SDS011;35679;38.732;-121.358;2022-09-09T08:43:31;7.25;;;4.00;;
49784;SDS011;35679;38.732;-121.358;2022-09-09T08:46:24;6.45;;;4.15;;
49784;SDS011;35679;38.732;-121.358;2022-09-09T08:49:24;11.15;;;5.03;;
49784;SDS011;35679;38.732;-121.358;2022-09-09T08:52:22;5.85;;;4.03;;
49784;SDS011;35679;38.732;-121.358;2022-09-09T08:58:14;4.72;;;4.13;;
49784;SDS011;35679;38.732;-121.358;2022-09-09T09:01:18;5.82;;;4.45;;
49784;SDS011;35679;38.732;-121.358;2022-09-09T09:07:54;6.75;;;4.32;;
49784;SDS011;35679;38.732;-121.358;2022-09-09T09:11:13;5.47;;;3.88;;
49784;SDS011;35679;38.732;-121.358;2022-09-09T09:17:04;5.18;;;4.15;;
49784;SDS011;35679;38.732;-121.358;2022-09-09T09:19:59;6.63;;;4.38;;
49784;SDS011;35679;38.732;-121.358;2022-09-09T09:22:50;4.53;;;4.13;;
49784;SDS011;35679;38.732;-121.358;2022-09-09T09:25:42;4.75;;;3.95;;
49784;SDS011;35679;38.732;-121.358;2022-09-09T09:28:33;4.95;;;4.30;;
49784;SDS011;35679;38.732;-121.358;2022-09-09T09:31:31;6.10;;;4.97;;
49784;SDS011;35679;38.732;-121.358;2022-09-09T09:34:20;7.25;;;4.50;;
49784;SDS011;35679;38.732;-121.358;2022-09-09T09:40:08;5.00;;;4.43;;
49784;SDS011;35679;38.732;-121.358;2022-09-09T09:43:17;5.68;;;4.25;;
49784;SDS011;35679;38.732;-121.358;2022-09-09T09:46:19;5.47;;;4.25;;
49784;SDS011;35679;38.732;-121.358;2022-09-09T09:49:22;6.07;;;4.20;;
49784;SDS011;35679;38.732;-121.358;2022-09-09T09:52:12;5.30;;;4.10;;
49784;SDS011;35679;38.732;-121.358;2022-09-09T09:55:12;5.30;;;4.40;;
49784;SDS011;35679;38.732;-121.358;2022-09-09T09:58:06;4.80;;;4.28;;
49784;SDS011;35679;38.732;-121.358;2022-09-09T10:01:18;5.07;;;4.45;;
49784;SDS011;35679;38.732;-121.358;2022-09-09T10:04:22;5.93;;;4.65;;
49784;SDS011;35679;38.732;-121.358;2022-09-09T10:07:21;4.72;;;4.15;;
49784;SDS011;35679;38.732;-121.358;2022-09-09T10:10:24;6.50;;;4.70;;
49784;SDS011;35679;38.732;-121.358;2022-09-09T10:16:49;8.10;;;4.57;;
49784;SDS011;35679;38.732;-121.358;2022-09-09T10:19:51;4.47;;;3.97;;
49784;SDS011;35679;38.732;-121.358;2022-09-09T10:22:57;5.43;;;4.28;;
49784;SDS011;35679;38.732;-121.358;2022-09-09T10:32:45;7.90;;;4.70;;
49784;SDS011;35679;38.732;-121.358;2022-09-09T10:38:41;6.85;;;4.30;;
49784;SDS011;35679;38.732;-121.358;2022-09-09T10:45:02;5.43;;;4.40;;
49784;SDS011;35679;38.732;-121.358;2022-09-09T10:57:51;6.43;;;4.28;;
49784;SDS011;35679;38.732;-121.358;2022-09-09T11:01:06;6.47;;;4.20;;
49784;SDS011;35679;38.732;-121.358;2022-09-09T11:04:31;5.32;;;4.50;;
49784;SDS011;35679;38.732;-121.358;2022-09-09T11:07:33;6.90;;;4.18;;
49784;SDS011;35679;38.732;-121.358;2022-09-09T11:10:33;5.88;;;4.40;;
49784;SDS011;35679;38.732;-121.358;2022-09-09T11:14:11;5.88;;;4.50;;
49784;SDS011;35679;38.732;-121.358;2022-09-09T11:17:09;8.30;;;4.80;;
49784;SDS011;35679;38.732;-121.358;2022-09-09T11:20:04;5.97;;;4.38;;
49784;SDS011;35679;38.732;-121.358;2022-09-09T11:25:55;5.70;;;4.40;;
49784;SDS011;35679;38.732;-121.358;2022-09-09T11:31:43;6.55;;;4.32;;
49784;SDS011;35679;38.732;-121.358;2022-09-09T11:37:53;6.45;;;4.28;;
49784;SDS011;35679;38.732;-121.358;2022-09-09T11:41:03;5.72;;;4.40;;
49784;SDS011;35679;38.732;-121.358;2022-09-09T11:43:55;5.32;;;4.57;;
49784;SDS011;35679;38.732;-121.358;2022-09-09T11:46:49;9.10;;;4.90;;
49784;SDS011;35679;38.732;-121.358;2022-09-09T11:49:41;8.15;;;4.78;;
49784;SDS011;35679;38.732;-121.358;2022-09-09T11:52:41;9.10;;;5.18;;
49784;SDS011;35679;38.732;-121.358;2022-09-09T11:55:34;10.40;;;5.10;;
49784;SDS011;35679;38.732;-121.358;2022-09-09T11:58:25;7.68;;;4.45;;
49784;SDS011;35679;38.732;-121.358;2022-09-09T12:01:15;6.65;;;4.70;;
49784;SDS011;35679;38.732;-121.358;2022-09-09T12:07:25;9.13;;;4.55;;
49784;SDS011;35679;38.732;-121.358;2022-09-09T12:13:20;11.27;;;4.65;;
49784;SDS011;35679;38.732;-121.358;2022-09-09T12:16:27;8.18;;;4.45;;
49784;SDS011;35679;38.732;-121.358;2022-09-09T12:26:24;7.77;;;5.40;;
49784;SDS011;35679;38.732;-121.358;2022-09-09T12:32:42;9.73;;;4.88;;
49784;SDS011;35679;38.732;-121.358;2022-09-09T12:35:32;7.85;;;5.30;;
49784;SDS011;35679;38.732;-121.358;2022-09-09T12:38:40;7.93;;;5.22;;
49784;SDS011;35679;38.732;-121.358;2022-09-09T12:41:31;10.63;;;4.95;;
49784;SDS011;35679;38.732;-121.358;2022-09-09T12:44:21;7.88;;;5.07;;
49784;SDS011;35679;38.732;-121.358;2022-09-09T12:47:10;16.42;;;5.72;;
49784;SDS011;35679;38.732;-121.358;2022-09-09T12:50:00;9.57;;;5.75;;
49784;SDS011;35679;38.732;-121.358;2022-09-09T12:52:50;10.68;;;4.95;;
49784;SDS011;35679;38.732;-121.358;2022-09-09T12:55:51;6.43;;;5.18;;
49784;SDS011;35679;38.732;-121.358;2022-09-09T12:58:46;8.60;;;5.55;;
49784;SDS011;35679;38.732;-121.358;2022-09-09T13:01:38;5.47;;;4.57;;
49784;SDS011;35679;38.732;-121.358;2022-09-09T13:04:28;8.85;;;5.55;;
49784;SDS011;35679;38.732;-121.358;2022-09-09T13:07:20;8.43;;;5.40;;
49784;SDS011;35679;38.732;-121.358;2022-09-09T13:10:11;6.60;;;5.90;;
49784;SDS011;35679;38.732;-121.358;2022-09-09T13:13:21;8.18;;;5.60;;
49784;SDS011;35679;38.732;-121.358;2022-09-09T13:16:20;9.18;;;6.00;;
49784;SDS011;35679;38.732;-121.358;2022-09-09T13:19:15;9.20;;;5.88;;
49784;SDS011;35679;38.732;-121.358;2022-09-09T13:22:18;9.60;;;5.80;;
49784;SDS011;35679;38.732;-121.358;2022-09-09T13:28:01;8.50;;;6.00;;
49784;SDS011;35679;38.732;-121.358;2022-09-09T13:31:01;8.27;;;6.13;;
49784;SDS011;35679;38.732;-121.358;2022-09-09T13:33:52;10.68;;;7.30;;
49784;SDS011;35679;38.732;-121.358;2022-09-09T13:36:46;8.75;;;6.82;;
49784;SDS011;35679;38.732;-121.358;2022-09-09T13:39:37;10.63;;;7.13;;
49784;SDS011;35679;38.732;-121.358;2022-09-09T13:42:27;11.00;;;7.10;;
49784;SDS011;35679;38.732;-121.358;2022-09-09T13:45:20;12.48;;;7.68;;
49784;SDS011;35679;38.732;-121.358;2022-09-09T13:48:17;12.85;;;8.50;;
49784;SDS011;35679;38.732;-121.358;2022-09-09T13:51:22;12.88;;;9.05;;
49784;SDS011;35679;38.732;-121.358;2022-09-09T13:54:31;12.30;;;8.98;;
49784;SDS011;35679;38.732;-121.358;2022-09-09T13:57:21;13.23;;;10.13;;
49784;SDS011;35679;38.732;-121.358;2022-09-09T14:00:13;14.25;;;9.40;;
49784;SDS011;35679;38.732;-121.358;2022-09-09T14:03:02;16.85;;;10.50;;
49784;SDS011;35679;38.732;-121.358;2022-09-09T14:05:51;13.60;;;10.48;;
49784;SDS011;35679;38.732;-121.358;2022-09-09T14:08:42;15.07;;;10.15;;
49784;SDS011;35679;38.732;-121.358;2022-09-09T14:11:33;12.80;;;10.40;;
49784;SDS011;35679;38.732;-121.358;2022-09-09T14:14:23;14.25;;;10.27;;
49784;SDS011;35679;38.732;-121.358;2022-09-09T14:17:13;14.52;;;10.45;;
49784;SDS011;35679;38.732;-121.358;2022-09-09T14:20:03;13.63;;;9.55;;
49784;SDS011;35679;38.732;-121.358;2022-09-09T14:22:57;9.90;;;8.90;;
49784;SDS011;35679;38.732;-121.358;2022-09-09T14:25:50;16.40;;;9.35;;
49784;SDS011;35679;38.732;-121.358;2022-09-09T14:28:39;17.83;;;9.20;;
49784;SDS011;35679;38.732;-121.358;2022-09-09T14:31:41;13.48;;;9.02;;
49784;SDS011;35679;38.732;-121.358;2022-09-09T14:34:31;16.48;;;8.93;;
49784;SDS011;35679;38.732;-121.358;2022-09-09T14:37:20;14.38;;;8.60;;
49784;SDS011;35679;38.732;-121.358;2022-09-09T14:40:09;11.77;;;9.30;;
49784;SDS011;35679;38.732;-121.358;2022-09-09T14:42:59;13.77;;;9.52;;
49784;SDS011;35679;38.732;-121.358;2022-09-09T14:45:48;11.23;;;9.10;;
49784;SDS011;35679;38.732;-121.358;2022-09-09T14:48:39;13.88;;;10.05;;
49784;SDS011;35679;38.732;-121.358;2022-09-09T14:51:29;16.75;;;10.30;;
49784;SDS011;35679;38.732;-121.358;2022-09-09T14:54:18;17.33;;;9.73;;
49784;SDS011;35679;38.732;-121.358;2022-09-09T14:57:09;17.35;;;9.80;;
49784;SDS011;35679;38.732;-121.358;2022-09-09T14:59:58;15.70;;;9.35;;
49784;SDS011;35679;38.732;-121.358;2022-09-09T15:02:47;16.88;;;9.52;;
49784;SDS011;35679;38.732;-121.358;2022-09-09T15:05:41;13.20;;;9.75;;
49784;SDS011;35679;38.732;-121.358;2022-09-09T15:08:30;17.90;;;9.60;;
49784;SDS011;35679;38.732;-121.358;2022-09-09T15:11:20;13.43;;;10.13;;
49784;SDS011;35679;38.732;-121.358;2022-09-09T15:14:10;15.98;;;10.20;;
49784;SDS011;35679;38.732;-121.358;2022-09-09T15:17:00;15.95;;;9.52;;
49784;SDS011;35679;38.732;-121.358;2022-09-09T15:19:49;11.75;;;8.93;;
49784;SDS011;35679;38.732;-121.358;2022-09-09T15:22:40;11.98;;;9.27;;
49784;SDS011;35679;38.732;-121.358;2022-09-09T15:25:30;12.27;;;9.27;;
49784;SDS011;35679;38.732;-121.358;2022-09-09T15:28:19;13.52;;;8.88;;
49784;SDS011;35679;38.732;-121.358;2022-09-09T15:31:13;11.77;;;9.70;;
49784;SDS011;35679;38.732;-121.358;2022-09-09T15:34:07;13.88;;;8.88;;
49784;SDS011;35679;38.732;-121.358;2022-09-09T15:36:56;10.70;;;8.77;;
49784;SDS011;35679;38.732;-121.358;2022-09-09T15:39:48;12.15;;;8.77;;
49784;SDS011;35679;38.732;-121.358;2022-09-09T15:42:37;11.20;;;8.70;;
49784;SDS011;35679;38.732;-121.358;2022-09-09T15:45:26;10.82;;;9.00;;
49784;SDS011;35679;38.732;-121.358;2022-09-09T15:48:15;10.52;;;8.80;;
49784;SDS011;35679;38.732;-121.358;2022-09-09T15:51:05;14.23;;;9.48;;
49784;SDS011;35679;38.732;-121.358;2022-09-09T15:54:15;10.38;;;8.85;;
49784;SDS011;35679;38.732;-121.358;2022-09-09T15:57:07;10.70;;;8.75;;
49784;SDS011;35679;38.732;-121.358;2022-09-09T16:00:00;10.57;;;8.32;;
49784;SDS011;35679;38.732;-121.358;2022-09-09T16:02:52;11.52;;;8.70;;
49784;SDS011;35679;38.732;-121.358;2022-09-09T16:05:41;12.55;;;8.23;;
49784;SDS011;35679;38.732;-121.358;2022-09-09T16:08:37;12.52;;;8.20;;
49784;SDS011;35679;38.732;-121.358;2022-09-09T16:11:29;10.52;;;9.00;;
49784;SDS011;35679;38.732;-121.358;2022-09-09T16:14:26;9.30;;;8.40;;
49784;SDS011;35679;38.732;-121.358;2022-09-09T16:17:15;11.15;;;8.63;;
49784;SDS011;35679;38.732;-121.358;2022-09-09T16:20:07;8.90;;;7.75;;
49784;SDS011;35679;38.732;-121.358;2022-09-09T16:22:56;9.73;;;8.43;;
49784;SDS011;35679;38.732;-121.358;2022-09-09T16:25:55;9.13;;;8.20;;
49784;SDS011;35679;38.732;-121.358;2022-09-09T16:28:51;10.90;;;8.45;;
49784;SDS011;35679;38.732;-121.358;2022-09-09T16:31:42;8.98;;;8.10;;
49784;SDS011;35679;38.732;-121.358;2022-09-09T16:34:32;9.07;;;7.88;;
49784;SDS011;35679;38.732;-121.358;2022-09-09T16:37:22;10.32;;;8.40;;
49784;SDS011;35679;38.732;-121.358;2022-09-09T16:40:11;10.85;;;8.07;;
49784;SDS011;35679;38.732;-121.358;2022-09-09T16:43:01;9.35;;;7.47;;
49784;SDS011;35679;38.732;-121.358;2022-09-09T16:45:51;9.15;;;7.57;;
49784;SDS011;35679;38.732;-121.358;2022-09-09T16:48:41;8.80;;;7.68;;
49784;SDS011;35679;38.732;-121.358;2022-09-09T16:51:33;10.70;;;8.13;;
49784;SDS011;35679;38.732;-121.358;2022-09-09T16:54:24;9.15;;;7.55;;
49784;SDS011;35679;38.732;-121.358;2022-09-09T16:57:15;10.00;;;7.68;;
49784;SDS011;35679;38.732;-121.358;2022-09-09T17:00:04;9.75;;;8.07;;
49784;SDS011;35679;38.732;-121.358;2022-09-09T17:02:55;9.85;;;8.43;;
49784;SDS011;35679;38.732;-121.358;2022-09-09T17:05:44;10.23;;;7.47;;
49784;SDS011;35679;38.732;-121.358;2022-09-09T17:08:34;10.55;;;8.18;;
49784;SDS011;35679;38.732;-121.358;2022-09-09T17:11:23;7.97;;;7.25;;
49784;SDS011;35679;38.732;-121.358;2022-09-09T17:14:14;11.45;;;7.60;;
49784;SDS011;35679;38.732;-121.358;2022-09-09T17:17:05;9.13;;;7.68;;
49784;SDS011;35679;38.732;-121.358;2022-09-09T17:20:14;8.23;;;7.43;;
49784;SDS011;35679;38.732;-121.358;2022-09-09T17:23:04;8.38;;;7.22;;
49784;SDS011;35679;38.732;-121.358;2022-09-09T17:25:57;9.50;;;7.93;;
49784;SDS011;35679;38.732;-121.358;2022-09-09T17:28:48;8.52;;;7.30;;
49784;SDS011;35679;38.732;-121.358;2022-09-09T17:31:41;10.32;;;7.40;;
49784;SDS011;35679;38.732;-121.358;2022-09-09T17:34:30;8.48;;;7.38;;
49784;SDS011;35679;38.732;-121.358;2022-09-09T17:37:19;8.70;;;7.13;;
49784;SDS011;35679;38.732;-121.358;2022-09-09T17:40:09;8.95;;;7.35;;
49784;SDS011;35679;38.732;-121.358;2022-09-09T17:42:58;10.23;;;7.03;;
49784;SDS011;35679;38.732;-121.358;2022-09-09T17:45:49;10.07;;;7.47;;
49784;SDS011;35679;38.732;-121.358;2022-09-09T17:48:38;8.23;;;7.43;;
49784;SDS011;35679;38.732;-121.358;2022-09-09T17:51:29;9.63;;;7.63;;
49784;SDS011;35679;38.732;-121.358;2022-09-09T17:54:20;7.70;;;6.72;;
49784;SDS011;35679;38.732;-121.358;2022-09-09T17:57:09;8.00;;;7.15;;
49784;SDS011;35679;38.732;-121.358;2022-09-09T17:59:59;7.90;;;7.10;;
49784;SDS011;35679;38.732;-121.358;2022-09-09T18:02:57;8.15;;;7.35;;
49784;SDS011;35679;38.732;-121.358;2022-09-09T18:05:47;8.75;;;7.63;;
49784;SDS011;35679;38.732;-121.358;2022-09-09T18:08:36;7.97;;;7.18;;
49784;SDS011;35679;38.732;-121.358;2022-09-09T18:11:26;7.82;;;7.03;;
49784;SDS011;35679;38.732;-121.358;2022-09-09T18:17:08;7.85;;;7.05;;
49784;SDS011;35679;38.732;-121.358;2022-09-09T18:19:58;7.68;;;6.88;;
49784;SDS011;35679;38.732;-121.358;2022-09-09T18:22:47;8.52;;;7.10;;
49784;SDS011;35679;38.732;-121.358;2022-09-09T18:25:37;7.30;;;6.57;;
49784;SDS011;35679;38.732;-121.358;2022-09-09T18:28:27;7.68;;;6.90;;
49784;SDS011;35679;38.732;-121.358;2022-09-09T18:31:18;8.32;;;7.35;;